Historique des mesures à Cassis (13260), France
Quotidien Résumé Fevrier 21, 2017 Unités:  US    Métrique   Métrique/US
« Précédent (Jour)
Suivant (Jour) »
Quotidien Hebdomadaire Mensuel Annuel Période au choix
  Maximum: Minimum: Moyenne:
Température: 32 °F 47.8 °F 53.8 °F
Point de rosée: 32 °F 36.1 °F 43.7 °F
Humidité: Humidity % 58 % 65 %
Vitesse du vent: WindSpeedKMH mph 0.0 mph 0.4 mph
Rafales: WindSpeedGustKMH mph - -
Vent:- - NW
Pression: 0 in 30 in -
Précipitations: 0 in    
Historical Graphs
 
 
Mesures pour : Fevrier 21, 2017
Heure Temperature Point de rosée Pression Vent Vitesse du vent Rafales Humidité Pluie (par heure) Conditions
32 °F 32 °F 0 in Calm     Humidity % 0 in SoftwareType W/m2
00:11 49.3 °F 36.9 °F 30.1 in Calm   1.8 mph 62 % 0 in open2300-1.11 W/m2
01:10 48.9 °F 36.1 °F 30.1 in Calm     61 % 0 in open2300-1.11 W/m2
02:11 48.9 °F 38.5 °F 30.1 in Calm     67 % 0 in open2300-1.11 W/m2
03:10 48.7 °F 39.7 °F 30.1 in Calm     71 % 0 in open2300-1.11 W/m2
04:11 48.6 °F 40.8 °F 30.1 in Calm   1.8 mph 75 % 0 in open2300-1.11 W/m2
05:10 48.4 °F 41.4 °F 30.1 in Calm     77 % 0 in open2300-1.11 W/m2
06:11 48 °F 41.7 °F 30.1 in Calm     79 % 0 in open2300-1.11 W/m2
07:10 47.8 °F 41.2 °F 30.1 in Calm     78 % 0 in open2300-1.11 W/m2
08:11 48.7 °F 42.4 °F 30.1 in Calm     79 % 0 in open2300-1.11 W/m2
09:10 50.9 °F 43 °F 30.1 in Calm     74 % 0 in open2300-1.11 W/m2
10:11 53.4 °F 43.9 °F 30.1 in Calm     70 % 0 in open2300-1.11 W/m2
11:10 55.8 °F 44.4 °F 30.1 in Calm     66 % 0 in open2300-1.11 W/m2
12:11 58.6 °F 46 °F 30.1 in Calm   5.5 mph 63 % 0 in open2300-1.11 W/m2
13:10 59.5 °F 45.7 °F 30 in Calm   2.6 mph 60 % 0 in open2300-1.11 W/m2
14:11 61.3 °F 46.9 °F 30 in Calm     59 % 0 in open2300-1.11 W/m2
15:10 61.2 °F 49.3 °F 30 in Calm     65 % 0 in open2300-1.11 W/m2
16:11 61.3 °F 49.8 °F 30 in Calm     66 % 0 in open2300-1.11 W/m2
17:10 62.2 °F 50.7 °F 30 in Calm     66 % 0 in open2300-1.11 W/m2
18:11 62.4 °F 47.5 °F 30 in NW 10.8 mph 10.8 mph 58 % 0 in open2300-1.11 W/m2
19:11 61.3 °F 46.9 °F 30 in Calm   14.8 mph 59 % 0 in open2300-1.11 W/m2
20:10 58.5 °F 47.1 °F 30 in Calm     66 % 0 in open2300-1.11 W/m2
21:11 56.8 °F 47.1 °F 30 in Calm   7.2 mph 70 % 0 in open2300-1.11 W/m2
22:10 55.8 °F 46.6 °F 30 in Calm     71 % 0 in open2300-1.11 W/m2
23:11 54 °F 44.8 °F 30 in Calm     71 % 0 in open2300-1.11 W/m2
Observations météo à CASSIS
WU-History script by Weather Underground - 1 mb